EEKE

Kuressaare Airport

Kuressaare, Estonia
METAR EEKE 250050Z AUTO 03006KT 9999NDV NCD 09/06 Q1028
Observed Flight Rules
May-25 @ 00:50 UTC (24 minutes ago)
Wind Clouds
30° at 6 knots
  • Clear skies
Temperatures Readings
Current 9°C / 48°F
Dewpoint 6°C / 43°F
Humidity 82%
Altimeter 30.35" Hg
Pressure 1028 hPa
Elevation 4
METAR EEKE 250050Z AUTO 03006KT 9999NDV NCD 09/06 Q1028
Observed Flight Rules
May-25 @ 00:50 UTC
(24 minutes ago)
Wind
30° at 6 knots
Clouds
  • Clear skies
Temperature Dewpoint
9°C / 48°F 6°C / 43°F
Humidity Altimeter Pressure
82% 30.35" Hg 1028 hPa